Time;durP1;ratioP1;P1;durP2;ratioP2;P2;SDS_P1;SDS_P2;PMS_P1;PMS_P2;Temp;Humidity;BMP_temperature;BMP_pressure;BME280_temperature;BME280_humidity;BME280_pressure;Samples;Min_cycle;Max_cycle;Signal;HPM_P1;HPM_P2
2022/10/14 00:03:02;;;;;;;41.70;25.60;;;;;;;10.30;62.44;99370.43;221486;1249;140512;-65
2022/10/14 00:08:08;;;;;;;38.00;25.60;;;;;;;10.34;62.58;99363.14;221478;1246;140686;-65
2022/10/14 00:13:12;;;;;;;43.80;25.80;;;;;;;10.35;62.69;99362.00;221313;1250;139420;-68
2022/10/14 00:18:16;;;;;;;40.60;26.60;;;;;;;10.33;62.51;99355.77;221342;1246;141197;-68
2022/10/14 00:23:21;;;;;;;44.00;25.30;;;;;;;10.26;62.57;99360.77;221425;1246;139720;-67
2022/10/14 00:28:26;;;;;;;40.10;25.30;;;;;;;10.15;62.37;99369.99;221374;1252;139363;-66
2022/10/14 00:33:29;;;;;;;38.50;24.20;;;;;;;10.07;62.56;99370.42;221452;1246;141409;-65
2022/10/14 00:38:39;;;;;;;44.80;26.50;;;;;;;10.05;62.61;99373.38;221486;1247;141556;-65
2022/10/14 00:43:57;;;;;;;43.40;26.30;;;;;;;10.07;63.31;99365.70;221423;1246;140299;-66
2022/10/14 00:49:06;;;;;;;43.30;25.80;;;;;;;10.11;63.35;99361.03;221564;1248;140209;-65
2022/10/14 00:54:13;;;;;;;48.80;26.00;;;;;;;10.16;63.54;99349.20;221365;1246;140972;-65
2022/10/14 00:59:19;;;;;;;40.30;25.90;;;;;;;10.27;63.49;99341.90;221401;1240;143069;-65
2022/10/14 01:04:25;;;;;;;43.30;25.10;;;;;;;10.33;63.73;99342.45;221364;1246;140047;-65
2022/10/14 01:09:37;;;;;;;47.40;26.40;;;;;;;10.36;63.66;99341.73;221356;1240;140305;-67
2022/10/14 01:14:48;;;;;;;41.50;27.80;;;;;;;10.37;63.53;99339.91;221576;1240;141010;-64
2022/10/14 01:20:14;;;;;;;46.50;26.80;;;;;;;10.35;63.53;99339.85;221327;1240;139918;-68
2022/10/14 01:25:32;;;;;;;39.30;25.50;;;;;;;10.35;63.50;99332.95;221435;1246;139412;-64
2022/10/14 01:30:45;;;;;;;37.10;26.20;;;;;;;10.29;63.47;99328.48;221414;1246;140538;-64
2022/10/14 01:36:31;;;;;;;42.50;25.20;;;;;;;10.23;63.39;99324.91;221444;1246;141455;-66
2022/10/14 01:41:40;;;;;;;41.90;24.80;;;;;;;10.14;63.22;99326.47;221290;1246;139770;-65
2022/10/14 01:46:50;;;;;;;42.10;26.30;;;;;;;10.09;63.31;99323.02;221389;1246;139850;-66
2022/10/14 01:52:07;;;;;;;42.30;25.00;;;;;;;10.08;63.36;99322.70;221401;1246;141062;-69
2022/10/14 01:57:19;;;;;;;39.40;24.80;;;;;;;10.12;63.42;99316.11;221442;1246;139931;-66
2022/10/14 02:02:24;;;;;;;39.40;24.60;;;;;;;10.15;63.72;99315.02;221460;1250;139649;-63
2022/10/14 02:07:38;;;;;;;47.90;25.90;;;;;;;10.16;63.58;99308.97;221423;1246;139330;-68
2022/10/14 02:13:17;;;;;;;42.60;26.10;;;;;;;10.14;63.47;99308.73;221342;1246;139567;-69
2022/10/14 02:18:45;;;;;;;35.60;21.20;;;;;;;10.13;63.63;99311.59;221388;1246;140036;-65
2022/10/14 02:23:59;;;;;;;41.30;24.90;;;;;;;10.12;63.67;99304.21;221320;1246;140112;-67
2022/10/14 02:29:04;;;;;;;39.70;23.40;;;;;;;10.12;63.82;99300.48;221422;1246;139836;-69
2022/10/14 02:34:11;;;;;;;41.90;24.70;;;;;;;10.12;63.80;99293.77;221502;1246;141846;-66
2022/10/14 02:39:23;;;;;;;44.70;25.30;;;;;;;10.10;63.97;99289.99;221395;1246;139591;-67
2022/10/14 02:44:26;;;;;;;39.70;24.20;;;;;;;10.15;64.08;99289.35;221471;1246;141348;-67
2022/10/14 02:49:31;;;;;;;42.90;24.90;;;;;;;10.22;63.92;99289.52;221328;1246;140010;-67
2022/10/14 02:54:34;;;;;;;38.10;23.60;;;;;;;10.24;63.90;99287.27;221318;1247;140303;-67
2022/10/14 02:59:38;;;;;;;39.50;24.30;;;;;;;10.24;64.02;99280.17;221394;1246;139608;-66
2022/10/14 03:04:42;;;;;;;39.30;23.30;;;;;;;10.29;64.27;99285.60;221182;1246;140035;-69
2022/10/14 03:09:46;;;;;;;39.30;24.50;;;;;;;10.30;63.93;99283.04;221408;1246;139559;-63
2022/10/14 03:14:51;;;;;;;;;;;;;;;10.29;64.03;99281.85;221389;1247;139550;-67
2022/10/14 03:19:58;;;;;;;41.70;23.60;;;;;;;10.28;64.04;99280.86;221427;1240;126622;-66
2022/10/14 03:25:04;;;;;;;39.80;24.10;;;;;;;10.27;64.13;99283.05;221393;1246;139196;-66
2022/10/14 03:30:26;;;;;;;48.80;25.40;;;;;;;10.26;64.14;99284.33;221147;1249;140070;-68
2022/10/14 03:35:35;;;;;;;44.10;24.10;;;;;;;10.32;64.11;99277.98;221309;1246;144732;-64
2022/10/14 03:40:45;;;;;;;44.30;23.80;;;;;;;10.38;64.49;99276.15;221427;1247;141427;-68
2022/10/14 03:45:50;;;;;;;43.30;25.30;;;;;;;10.45;64.41;99273.48;221523;1246;140167;-64
2022/10/14 03:50:56;;;;;;;42.10;24.80;;;;;;;10.48;64.60;99267.47;221524;1247;139515;-63
2022/10/14 03:56:02;;;;;;;40.40;24.50;;;;;;;10.50;64.57;99261.70;221292;1246;140315;-65
2022/10/14 04:01:08;;;;;;;40.60;24.20;;;;;;;10.53;64.54;99260.05;221556;1246;140082;-63
2022/10/14 04:06:34;;;;;;;;;;;;;;;10.56;64.55;99253.00;221593;1246;140807;-63
2022/10/14 04:11:45;;;;;;;38.60;24.60;;;;;;;10.54;64.54;99250.45;221545;1247;125471;-63
2022/10/14 04:17:17;;;;;;;43.30;24.30;;;;;;;10.54;64.84;99252.40;221355;1249;139791;-65
2022/10/14 04:22:23;;;;;;;48.30;26.40;;;;;;;10.56;64.82;99250.84;221425;1247;143996;-64
2022/10/14 04:27:28;;;;;;;38.80;24.40;;;;;;;10.59;64.55;99249.73;221547;1247;140419;-65
2022/10/14 04:32:38;;;;;;;44.80;25.40;;;;;;;10.68;64.71;99245.52;221560;1246;139672;-66
2022/10/14 04:37:44;;;;;;;43.80;26.40;;;;;;;10.72;64.67;99244.39;221425;1240;139377;-66
2022/10/14 04:43:00;;;;;;;36.30;24.30;;;;;;;10.72;64.58;99244.95;221579;1246;140784;-66
2022/10/14 04:48:09;;;;;;;40.80;24.10;;;;;;;10.71;64.65;99239.02;221453;1247;143689;-65
2022/10/14 04:53:18;;;;;;;38.90;23.80;;;;;;;10.69;64.52;99237.81;221566;1240;140012;-65
2022/10/14 04:58:48;;;;;;;45.00;24.20;;;;;;;10.70;64.70;99240.13;221616;1246;140246;-68
2022/10/14 05:03:52;;;;;;;68.20;46.30;;;;;;;10.71;65.01;99240.06;221411;1246;139692;-66
2022/10/14 05:08:58;;;;;;;55.90;33.70;;;;;;;10.83;65.37;99238.23;221499;1246;139911;-66
2022/10/14 05:14:04;;;;;;;42.60;25.00;;;;;;;10.98;65.44;99234.30;221583;1246;141000;-65
2022/10/14 05:19:08;;;;;;;46.70;25.80;;;;;;;11.06;64.71;99229.05;221403;1240;140033;-66
2022/10/14 05:24:20;;;;;;;96.00;59.30;;;;;;;11.09;64.63;99221.55;221291;1240;140769;-65
2022/10/14 05:29:24;;;;;;;50.10;33.90;;;;;;;11.16;64.95;99222.60;221342;1247;140290;-66
2022/10/14 05:34:29;;;;;;;45.50;26.50;;;;;;;11.22;64.86;99223.60;221376;1246;139262;-67
2022/10/14 05:39:34;;;;;;;42.60;25.20;;;;;;;11.22;65.09;99227.52;221437;1238;139340;-66
2022/10/14 05:44:40;;;;;;;47.90;27.70;;;;;;;11.20;64.84;99230.90;221455;1240;139837;-67
2022/10/14 05:49:45;;;;;;;34.10;23.70;;;;;;;11.16;64.67;99229.70;221398;1240;140323;-66
2022/10/14 05:54:50;;;;;;;44.50;27.20;;;;;;;11.16;64.66;99225.98;221273;1249;139340;-67
2022/10/14 05:59:57;;;;;;;46.20;27.00;;;;;;;11.20;65.23;99224.46;221310;1247;139271;-66
2022/10/14 06:05:01;;;;;;;47.10;27.90;;;;;;;11.26;65.01;99219.31;221374;1248;140586;-66
2022/10/14 06:10:09;;;;;;;53.00;32.00;;;;;;;11.42;65.20;99215.66;221307;1240;164645;-67
2022/10/14 06:15:14;;;;;;;55.90;31.60;;;;;;;11.51;64.96;99219.69;221365;1240;139823;-67
2022/10/14 06:20:20;;;;;;;58.10;33.10;;;;;;;11.49;64.80;99231.74;221465;1244;140320;-69
2022/10/14 06:25:25;;;;;;;48.70;30.90;;;;;;;11.49;64.79;99226.70;221433;1247;139640;-69
2022/10/14 06:30:29;;;;;;;48.90;31.30;;;;;;;11.52;64.80;99221.55;221492;1246;140320;-67
2022/10/14 06:35:34;;;;;;;52.40;30.70;;;;;;;11.53;64.95;99225.42;221274;1244;139791;-66
2022/10/14 06:40:37;;;;;;;54.10;31.80;;;;;;;11.55;65.21;99225.13;221500;1246;140193;-67
2022/10/14 06:45:41;;;;;;;47.60;30.50;;;;;;;11.58;65.14;99231.46;221426;1246;139347;-69
2022/10/14 06:50:45;;;;;;;51.70;31.50;;;;;;;11.68;65.19;99235.31;221404;1246;140509;-68
2022/10/14 06:56:04;;;;;;;82.70;47.10;;;;;;;11.80;65.43;99238.48;221364;1243;139978;-65
2022/10/14 07:01:08;;;;;;;54.00;35.00;;;;;;;11.97;65.52;99240.77;221372;1248;139914;-65
2022/10/14 07:06:14;;;;;;;61.00;37.40;;;;;;;12.12;65.65;99233.40;221360;1246;139688;-64
2022/10/14 07:11:18;;;;;;;;;;;;;;;12.27;65.75;99230.25;221293;1247;139438;-63
2022/10/14 07:16:23;;;;;;;70.80;44.10;;;;;;;12.39;65.68;99229.50;221410;1246;125423;-68
2022/10/14 07:21:27;;;;;;;69.30;38.30;;;;;;;12.50;65.51;99228.89;221419;1247;139874;-67
2022/10/14 07:26:31;;;;;;;66.70;35.40;;;;;;;12.60;65.49;99230.23;221521;1246;139356;-67
2022/10/14 07:31:37;;;;;;;56.30;32.60;;;;;;;12.67;65.36;99228.48;221326;1246;139570;-66
2022/10/14 07:36:41;;;;;;;58.50;32.40;;;;;;;12.79;65.24;99230.04;221355;1246;140427;-66
2022/10/14 07:41:45;;;;;;;51.40;30.30;;;;;;;12.94;65.31;99227.91;221334;1246;140016;-68
2022/10/14 07:46:49;;;;;;;252.60;152.00;;;;;;;13.12;65.49;99224.02;221198;1239;140075;-68
2022/10/14 07:51:54;;;;;;;61.90;37.70;;;;;;;13.35;65.85;99227.38;221383;1246;140161;-67
2022/10/14 07:56:59;;;;;;;40.70;28.40;;;;;;;13.49;65.04;99229.77;221440;1240;139866;-68
2022/10/14 08:02:04;;;;;;;53.00;28.60;;;;;;;13.59;64.85;99223.20;221410;1246;140387;-66
2022/10/14 08:07:08;;;;;;;51.10;29.80;;;;;;;13.70;64.90;99219.58;221380;1246;140244;-66
2022/10/14 08:12:13;;;;;;;48.20;29.40;;;;;;;13.79;64.76;99222.66;221451;1248;139836;-66
2022/10/14 08:17:16;;;;;;;57.30;29.10;;;;;;;13.89;64.59;99217.67;221385;1246;139341;-66
2022/10/14 08:22:21;;;;;;;56.70;28.50;;;;;;;14.02;64.60;99215.26;221305;1246;142491;-66
2022/10/14 08:27:28;;;;;;;44.80;26.80;;;;;;;14.20;64.37;99212.33;221393;1250;141123;-65
2022/10/14 08:32:32;;;;;;;79.50;46.20;;;;;;;14.44;64.60;99208.07;221470;1240;139831;-66
2022/10/14 08:37:37;;;;;;;63.40;28.50;;;;;;;14.69;64.59;99210.82;221385;1245;142271;-67
2022/10/14 08:42:44;;;;;;;54.60;28.20;;;;;;;14.89;64.35;99207.86;221343;1246;139419;-67
2022/10/14 08:47:56;;;;;;;43.90;27.30;;;;;;;15.02;64.17;99200.79;221348;1246;142390;-65
2022/10/14 08:53:26;;;;;;;48.70;27.80;;;;;;;15.11;63.94;99206.13;221246;1247;139648;-63
2022/10/14 08:58:49;;;;;;;135.90;84.30;;;;;;;15.18;63.45;99202.97;221177;1247;140478;-65
2022/10/14 09:03:58;;;;;;;154.40;95.40;;;;;;;15.23;63.79;99199.15;221270;1245;139978;-65
2022/10/14 09:09:41;;;;;;;64.90;42.00;;;;;;;15.31;63.68;99197.10;221433;1244;140256;-65
2022/10/14 09:14:59;;;;;;;58.30;29.60;;;;;;;15.41;63.56;99196.14;221445;1247;140736;-65
2022/10/14 09:20:21;;;;;;;47.30;25.60;;;;;;;15.53;63.60;99197.48;221273;1248;139447;-66
2022/10/14 09:25:29;;;;;;;616.90;439.60;;;;;;;15.71;63.34;99198.23;221350;1246;139951;-67
2022/10/14 09:30:39;;;;;;;134.50;89.00;;;;;;;15.94;63.61;99199.57;221179;1246;140521;-66
2022/10/14 09:35:44;;;;;;;50.40;28.90;;;;;;;16.14;63.18;99199.70;221229;1246;139863;-65
2022/10/14 09:40:52;;;;;;;50.10;26.00;;;;;;;16.31;62.85;99197.02;221344;1246;139750;-64
2022/10/14 09:46:18;;;;;;;279.60;199.10;;;;;;;16.48;63.00;99198.09;221310;1248;142427;-66
2022/10/14 09:51:37;;;;;;;248.40;151.10;;;;;;;16.63;62.64;99193.69;221453;1246;140261;-65
2022/10/14 09:56:41;;;;;;;72.90;43.00;;;;;;;16.75;62.25;99189.93;221461;1251;140043;-67
2022/10/14 10:01:51;;;;;;;79.40;47.40;;;;;;;17.12;64.32;99185.20;221358;1244;140447;-68
2022/10/14 10:06:56;;;;;;;25.30;16.90;;;;;;;17.53;63.06;99178.13;221404;1253;140285;-66
2022/10/14 10:12:23;;;;;;;27.70;17.10;;;;;;;17.64;61.71;99177.91;221368;1246;139728;-68
2022/10/14 10:17:31;;;;;;;23.40;16.60;;;;;;;17.72;60.82;99178.09;221342;1246;139558;-67
2022/10/14 10:22:38;;;;;;;24.40;16.70;;;;;;;17.77;60.28;99178.78;221510;1246;141123;-65
2022/10/14 10:27:46;;;;;;;30.80;17.70;;;;;;;17.77;59.70;99173.24;221550;1247;140328;-68
2022/10/14 10:32:56;;;;;;;28.30;16.10;;;;;;;17.78;59.55;99173.48;221496;1247;139864;-66
2022/10/14 10:38:10;;;;;;;26.00;15.80;;;;;;;17.85;59.42;99167.80;221540;1247;225437;-67
2022/10/14 10:43:39;;;;;;;29.70;16.90;;;;;;;17.90;59.13;99165.72;221501;1253;139241;-67
2022/10/14 10:49:00;;;;;;;24.90;16.20;;;;;;;17.88;58.51;99160.02;221299;1244;139841;-65
2022/10/14 10:54:10;;;;;;;21.40;15.40;;;;;;;17.83;58.39;99162.27;221164;1247;140974;-66
2022/10/14 10:59:42;;;;;;;27.90;15.40;;;;;;;17.78;58.23;99158.05;221343;1249;139790;-67
2022/10/14 11:05:01;;;;;;;30.00;15.40;;;;;;;17.73;58.13;99154.34;221197;1247;139961;-66
2022/10/14 11:16:00;;;;;;;24.90;14.10;;;;;;;17.76;57.62;99147.63;221151;1253;140640;-66
2022/10/14 11:21:28;;;;;;;18.00;13.50;;;;;;;17.80;57.59;99143.10;221461;1252;140828;-66
2022/10/14 11:26:55;;;;;;;21.80;14.40;;;;;;;17.82;57.32;99135.02;221360;1250;139668;-66
2022/10/14 11:32:37;;;;;;;24.60;14.70;;;;;;;17.88;56.88;99129.99;221254;1249;140089;-67
2022/10/14 11:38:01;;;;;;;18.20;13.80;;;;;;;17.91;56.57;99129.20;221366;1249;141176;-67
2022/10/14 11:43:26;;;;;;;22.90;13.90;;;;;;;17.95;56.59;99128.31;221336;1253;140103;-67
2022/10/14 11:48:53;;;;;;;25.70;13.10;;;;;;;18.03;56.47;99124.88;221283;1246;139648;-66
2022/10/14 11:54:17;;;;;;;18.90;12.30;;;;;;;18.12;56.11;99121.17;221217;1249;140351;-66
2022/10/14 11:59:33;;;;;;;18.10;12.50;;;;;;;18.09;55.60;99118.00;221253;1249;139545;-67
2022/10/14 12:04:42;;;;;;;17.60;13.50;;;;;;;18.04;55.27;99120.46;221397;1251;140378;-66
2022/10/14 12:10:07;;;;;;;21.10;12.40;;;;;;;18.02;55.30;99111.70;221364;1246;139450;-66
2022/10/14 12:15:22;;;;;;;21.30;12.70;;;;;;;17.97;55.08;99111.02;221446;1247;139560;-67
2022/10/14 12:21:02;;;;;;;20.70;13.20;;;;;;;17.97;54.76;99107.83;221195;1249;139300;-67
2022/10/14 12:26:21;;;;;;;18.40;12.40;;;;;;;17.96;54.82;99105.35;221366;1253;139422;-66
2022/10/14 12:31:39;;;;;;;17.80;11.70;;;;;;;17.95;54.60;99099.73;221259;1246;141412;-67
2022/10/14 12:36:45;;;;;;;22.30;12.90;;;;;;;17.90;54.46;99102.70;221471;1251;139584;-67
2022/10/14 12:42:00;;;;;;;15.70;12.10;;;;;;;17.85;54.36;99102.14;221389;1250;139578;-67
2022/10/14 12:47:35;;;;;;;20.00;12.40;;;;;;;17.81;54.50;99099.75;221457;1252;140041;-65
2022/10/14 12:52:54;;;;;;;23.60;13.70;;;;;;;17.78;54.48;99101.66;221370;1248;140126;-66
2022/10/14 12:58:02;;;;;;;122.30;86.10;;;;;;;17.73;54.39;99101.18;221377;1252;139367;-67
2022/10/14 13:03:19;;;;;;;25.20;18.60;;;;;;;17.76;56.03;99105.41;221372;1252;140670;-66
2022/10/14 13:08:23;;;;;;;26.30;17.10;;;;;;;18.02;58.12;99099.32;221373;1250;140032;-68
2022/10/14 13:13:51;;;;;;;26.30;16.90;;;;;;;18.23;58.47;99105.06;221290;1246;139524;-67
2022/10/14 13:18:57;;;;;;;23.90;16.20;;;;;;;18.37;58.50;99103.79;221342;1246;139575;-67
2022/10/14 13:24:05;;;;;;;23.50;15.50;;;;;;;18.45;58.16;99102.37;221221;1250;139665;-68
2022/10/14 13:29:16;;;;;;;20.50;15.80;;;;;;;18.43;57.73;99102.14;221322;1250;139596;-67
2022/10/14 13:34:38;;;;;;;22.90;15.30;;;;;;;18.41;57.78;99104.70;221308;1250;140374;-67
2022/10/14 13:39:44;;;;;;;22.20;14.70;;;;;;;18.37;58.09;99101.59;221243;1248;139306;-68
2022/10/14 13:44:48;;;;;;;18.40;14.00;;;;;;;18.41;58.40;99094.21;221431;1247;139724;-66
2022/10/14 13:49:54;;;;;;;;;;;;;;;18.31;57.52;99093.02;221141;1253;140145;-68
2022/10/14 13:55:17;;;;;;;24.80;16.40;;;;;;;18.09;57.28;99094.19;221361;1253;125609;-67
2022/10/14 14:00:31;;;;;;;22.40;17.90;;;;;;;17.91;57.54;99093.89;221296;1247;139713;-66
2022/10/14 14:05:45;;;;;;;27.50;18.00;;;;;;;17.87;58.10;99089.23;221148;1248;140332;-67
2022/10/14 14:10:52;;;;;;;22.30;17.20;;;;;;;17.88;58.37;99092.67;221299;1248;140294;-66
2022/10/14 14:16:29;;;;;;;28.10;18.40;;;;;;;17.82;58.45;99087.31;221310;1251;139278;-67
2022/10/14 14:21:33;;;;;;;27.30;17.90;;;;;;;17.72;58.36;99082.79;221276;1250;140799;-67
2022/10/14 14:26:38;;;;;;;24.50;18.70;;;;;;;17.67;58.59;99078.36;221329;1250;140167;-66
2022/10/14 14:32:22;;;;;;;28.20;18.50;;;;;;;17.63;58.66;99076.59;221191;1232;139387;31
2022/10/14 14:37:29;;;;;;;30.30;17.30;;;;;;;17.60;58.83;99073.64;222964;1247;141006;-70
2022/10/14 14:42:56;;;;;;;25.00;17.00;;;;;;;17.63;58.93;99072.66;224003;1247;140530;-69
2022/10/14 14:48:05;;;;;;;27.60;17.10;;;;;;;17.69;59.41;99075.21;223332;1247;140589;-68
2022/10/14 14:53:40;;;;;;;26.10;17.20;;;;;;;17.70;59.53;99071.31;223480;1254;141685;-68
2022/10/14 14:58:51;;;;;;;25.00;17.70;;;;;;;17.70;59.54;99068.23;223833;1240;141342;-68
2022/10/14 15:03:57;;;;;;;28.00;19.20;;;;;;;17.67;59.66;99069.04;223875;1239;140367;-66
2022/10/14 15:09:42;;;;;;;26.40;18.50;;;;;;;17.63;59.73;99069.63;223564;1250;139952;-69
2022/10/14 15:14:53;;;;;;;28.60;19.30;;;;;;;17.63;60.01;99063.91;224111;1236;139847;-68
2022/10/14 15:20:00;;;;;;;22.80;17.10;;;;;;;17.58;60.17;99066.16;223270;1244;140598;-67
2022/10/14 15:25:06;;;;;;;36.70;23.10;;;;;;;17.55;60.81;99060.98;224009;1244;140288;-69
2022/10/14 15:30:35;;;;;;;24.80;17.90;;;;;;;17.77;61.40;99063.58;222504;1249;140704;-68
2022/10/14 15:35:42;;;;;;;31.00;19.30;;;;;;;17.76;60.69;99061.66;221132;1249;140480;-68
2022/10/14 15:40:47;;;;;;;29.00;17.50;;;;;;;17.64;60.64;99060.55;221162;1249;139467;-69
2022/10/14 15:51:24;;;;;;;26.80;19.00;;;;;;;17.39;60.90;99057.09;221200;1243;139902;-69
2022/10/14 15:56:28;;;;;;;27.10;20.20;;;;;;;17.24;61.05;99067.55;221011;1249;139323;-69
2022/10/14 16:01:35;;;;;;;29.20;20.00;;;;;;;17.11;61.31;99062.16;221570;1249;139332;-67
2022/10/14 16:06:38;;;;;;;32.80;20.50;;;;;;;16.93;61.37;99067.06;223104;1247;139844;-65
2022/10/14 16:11:41;;;;;;;33.70;19.40;;;;;;;16.76;61.57;99067.52;223732;1247;140317;-65
2022/10/14 16:16:47;;;;;;;190.10;120.80;;;;;;;16.68;62.08;99064.98;223832;1241;141107;-64
2022/10/14 16:21:52;;;;;;;30.00;20.70;;;;;;;16.67;62.24;99068.96;223296;1256;140844;-67
2022/10/14 16:26:56;;;;;;;35.40;20.40;;;;;;;16.64;62.34;99072.98;223396;1250;139840;-65
2022/10/14 16:31:59;;;;;;;33.90;21.30;;;;;;;16.57;62.49;99071.58;223162;1256;140030;-67
2022/10/14 16:37:02;;;;;;;35.00;21.60;;;;;;;16.49;62.47;99075.69;223386;1254;141223;-67
2022/10/14 16:42:06;;;;;;;34.20;21.90;;;;;;;16.40;62.62;99078.30;223546;1254;140272;-67
2022/10/14 16:47:15;;;;;;;31.90;20.80;;;;;;;16.31;62.94;99080.31;223356;1247;140640;-65
2022/10/14 16:52:22;;;;;;;35.60;20.30;;;;;;;16.21;63.20;99085.48;223270;1251;141798;-68
2022/10/14 16:57:42;;;;;;;48.70;23.80;;;;;;;16.18;63.41;99086.07;223257;1251;141505;-66
2022/10/14 17:02:46;;;;;;;35.40;23.40;;;;;;;16.19;63.65;99090.98;223882;1250;140390;-67
2022/10/14 17:07:49;;;;;;;40.20;23.30;;;;;;;16.17;63.61;99091.00;223181;1243;139918;-68
2022/10/14 17:12:56;;;;;;;41.00;22.10;;;;;;;16.12;63.64;99087.82;223348;1251;139380;-65
2022/10/14 17:17:59;;;;;;;40.10;23.20;;;;;;;16.06;63.83;99093.15;223395;1247;139929;-69
2022/10/14 17:23:05;;;;;;;31.70;21.70;;;;;;;16.00;64.01;99097.11;223250;1251;140119;-67
2022/10/14 17:28:14;;;;;;;37.60;22.70;;;;;;;15.98;64.24;99098.30;223932;1247;139924;-67
2022/10/14 17:33:17;;;;;;;42.20;21.70;;;;;;;16.06;64.46;99096.55;223391;1254;140600;-67
2022/10/14 17:38:20;;;;;;;35.30;21.60;;;;;;;16.12;64.61;99096.75;223300;1255;140376;-65
2022/10/14 17:43:23;;;;;;;47.40;22.80;;;;;;;16.21;64.91;99092.64;223943;1247;140198;-65
2022/10/14 17:48:26;;;;;;;32.70;23.30;;;;;;;16.30;65.04;99092.74;223992;1240;140218;-64
2022/10/14 17:53:29;;;;;;;32.10;23.10;;;;;;;16.45;65.09;99089.90;223345;1247;140857;-66
2022/10/14 17:58:32;;;;;;;35.30;23.70;;;;;;;16.52;64.95;99090.38;223457;1247;139532;-65
2022/10/14 18:03:40;;;;;;;35.60;22.10;;;;;;;16.53;64.89;99094.73;223349;1251;141326;-64
2022/10/14 18:08:49;;;;;;;35.00;22.30;;;;;;;16.52;64.71;99092.96;223405;1247;140281;-66
2022/10/14 18:13:58;;;;;;;34.90;23.40;;;;;;;16.57;64.86;99092.92;223335;1257;142702;-64
2022/10/14 18:19:06;;;;;;;38.00;23.60;;;;;;;16.62;64.93;99088.40;223938;1250;139899;-67
2022/10/14 18:24:10;;;;;;;41.90;24.10;;;;;;;16.67;64.75;99085.85;223228;1247;141139;-67
2022/10/14 18:29:14;;;;;;;37.90;23.80;;;;;;;16.64;64.69;99081.20;223399;1247;139937;-64
2022/10/14 18:34:17;;;;;;;34.40;23.40;;;;;;;16.62;64.74;99081.56;223435;1254;140314;-66
2022/10/14 18:39:20;;;;;;;32.00;21.60;;;;;;;16.58;64.53;99076.77;223450;1254;140126;-66
2022/10/14 18:44:23;;;;;;;40.00;23.50;;;;;;;16.57;64.48;99074.73;224099;1247;141083;-65
2022/10/14 18:49:26;;;;;;;36.90;23.10;;;;;;;16.59;64.56;99076.54;223354;1251;140856;-67
2022/10/14 18:54:31;;;;;;;39.40;24.20;;;;;;;16.59;64.66;99080.41;223310;1247;141420;-68
2022/10/14 18:59:34;;;;;;;46.20;24.50;;;;;;;16.53;64.48;99082.67;223299;1243;140080;-68
2022/10/14 19:04:37;;;;;;;33.40;23.00;;;;;;;16.46;64.51;99083.89;224061;1246;140360;-66
2022/10/14 19:09:40;;;;;;;69.40;49.80;;;;;;;16.41;64.58;99080.33;224100;1239;140423;-65
2022/10/14 19:14:43;;;;;;;35.30;23.30;;;;;;;16.42;64.80;99079.01;223526;1251;139603;-65
2022/10/14 19:19:46;;;;;;;34.80;23.60;;;;;;;16.43;64.69;99080.52;223311;1257;141174;-66
2022/10/14 19:24:49;;;;;;;36.00;24.90;;;;;;;16.43;64.69;99084.08;223328;1257;140602;-68
2022/10/14 19:29:52;;;;;;;39.10;24.30;;;;;;;16.45;64.83;99083.96;223899;1247;140016;-67
2022/10/14 19:34:55;;;;;;;35.90;23.70;;;;;;;16.52;64.92;99084.02;223412;1256;140040;-65
2022/10/14 19:39:58;;;;;;;39.30;24.20;;;;;;;16.50;64.51;99080.83;223914;1247;139831;-67
2022/10/14 19:45:01;;;;;;;40.50;25.30;;;;;;;16.40;64.35;99081.70;224172;1247;139779;-65
2022/10/14 19:50:05;;;;;;;83.60;59.40;;;;;;;16.30;64.36;99079.06;223313;1248;140000;-67
2022/10/14 19:55:08;;;;;;;35.70;23.50;;;;;;;16.35;64.76;99081.92;223282;1247;140077;-68
2022/10/14 20:00:11;;;;;;;33.80;23.70;;;;;;;16.37;64.49;99077.45;223212;1255;140881;-68
2022/10/14 20:05:17;;;;;;;35.00;24.10;;;;;;;16.35;64.53;99075.27;223974;1247;140087;-66
2022/10/14 20:10:20;;;;;;;64.70;45.50;;;;;;;16.35;64.51;99071.75;223353;1256;140818;-63
2022/10/14 20:15:25;;;;;;;35.90;24.80;;;;;;;16.30;64.55;99073.90;224216;1247;139442;-62
2022/10/14 20:20:28;;;;;;;34.90;24.00;;;;;;;16.24;64.49;99073.16;223379;1250;140206;-62
2022/10/14 20:25:31;;;;;;;43.00;25.60;;;;;;;16.18;64.47;99072.27;223298;1247;139859;-64
2022/10/14 20:30:38;;;;;;;75.00;47.50;;;;;;;16.10;64.77;99074.92;223461;1258;140023;-64
2022/10/14 20:35:42;;;;;;;48.20;23.90;;;;;;;16.07;64.80;99071.93;224083;1246;143922;-63
2022/10/14 20:40:45;;;;;;;47.80;25.80;;;;;;;16.07;64.71;99075.89;223441;1247;140297;-63
2022/10/14 20:45:48;;;;;;;50.20;26.40;;;;;;;16.03;64.68;99071.53;223510;1251;139828;-65
2022/10/14 20:50:51;;;;;;;52.10;27.20;;;;;;;15.96;64.58;99070.17;223474;1255;140846;-63
2022/10/14 20:55:59;;;;;;;48.80;27.20;;;;;;;15.86;64.58;99073.00;223262;1248;140070;-64
2022/10/14 21:01:03;;;;;;;47.10;28.80;;;;;;;15.74;64.73;99064.48;224065;1247;140347;-63
2022/10/14 21:06:11;;;;;;;42.90;25.70;;;;;;;15.63;64.69;99063.98;223953;1246;140262;-64
2022/10/14 21:11:16;;;;;;;45.60;28.10;;;;;;;15.58;64.87;99057.20;223414;1257;139866;-63
2022/10/14 21:16:21;;;;;;;;;;;;;;;15.56;65.10;99053.83;223394;1252;140874;-64
2022/10/14 21:21:27;;;;;;;49.30;29.60;;;;;;;15.50;65.14;99050.94;223554;1257;125966;-62
2022/10/14 21:26:31;;;;;;;50.10;29.70;;;;;;;15.44;65.17;99052.30;223958;1247;139838;-64
2022/10/14 21:31:34;;;;;;;48.90;30.70;;;;;;;15.39;65.21;99045.35;223315;1257;139994;-64
2022/10/14 21:36:38;;;;;;;45.30;29.10;;;;;;;15.33;65.31;99044.02;224028;1244;139498;-64
2022/10/14 21:41:41;;;;;;;45.60;29.10;;;;;;;15.29;65.39;99038.72;223964;1244;140235;-64
2022/10/14 21:46:45;;;;;;;50.20;28.90;;;;;;;15.28;65.57;99036.63;223433;1256;141109;-62
2022/10/14 21:51:48;;;;;;;45.20;30.50;;;;;;;15.28;65.57;99033.20;223351;1247;140240;-64
2022/10/14 21:56:51;;;;;;;50.40;29.30;;;;;;;15.28;65.88;99028.21;223620;1260;139266;-63
2022/10/14 22:01:57;;;;;;;46.70;29.70;;;;;;;15.25;65.86;99021.45;224095;1247;141252;-63
2022/10/14 22:07:00;;;;;;;48.40;30.30;;;;;;;15.25;65.98;99022.91;223414;1254;141023;-65
2022/10/14 22:12:04;;;;;;;56.60;32.20;;;;;;;15.20;65.90;99017.78;224015;1248;140239;-64
2022/10/14 22:17:07;;;;;;;52.80;29.60;;;;;;;15.15;65.84;99023.35;224123;1247;139920;-64
2022/10/14 22:22:10;;;;;;;51.40;30.20;;;;;;;15.16;65.98;99025.13;223409;1255;140665;-65
2022/10/14 22:27:13;;;;;;;48.70;28.90;;;;;;;15.18;65.99;99023.19;223459;1248;141404;-62
2022/10/14 22:32:16;;;;;;;54.60;30.50;;;;;;;15.19;66.15;99021.29;223370;1257;140213;-64
2022/10/14 22:37:19;;;;;;;48.50;29.80;;;;;;;15.16;66.31;99017.16;223155;1262;139715;-63
2022/10/14 22:42:22;;;;;;;44.20;29.70;;;;;;;15.11;66.20;99015.80;223917;1250;139928;-64
2022/10/14 22:47:25;;;;;;;41.70;28.90;;;;;;;15.07;66.19;99016.34;223259;1251;140604;-64
2022/10/14 22:52:28;;;;;;;41.80;27.30;;;;;;;15.02;66.28;99016.23;223234;1258;139781;-62
2022/10/14 22:57:31;;;;;;;43.80;26.40;;;;;;;15.01;66.36;99019.36;223371;1253;141058;-63
2022/10/14 23:02:34;;;;;;;46.40;27.30;;;;;;;15.02;66.48;99018.00;223925;1247;140202;-63
2022/10/14 23:07:38;;;;;;;39.90;27.80;;;;;;;15.03;66.48;99020.60;223867;1244;139934;-63
2022/10/14 23:12:41;;;;;;;43.70;27.90;;;;;;;15.01;66.41;99020.23;223235;1254;139867;-63
2022/10/14 23:17:44;;;;;;;46.60;28.50;;;;;;;14.98;66.56;99025.30;223172;1249;139691;-64
2022/10/14 23:22:47;;;;;;;44.10;29.20;;;;;;;14.94;66.45;99024.59;223860;1253;140188;-61